createdAt,value
2023-04-07T00:01:35.959Z,97297.68
2023-04-07T00:04:04.271Z,97298.09
2023-04-07T00:06:32.879Z,97298.29
2023-04-07T00:09:01.080Z,97302.73
2023-04-07T00:11:29.228Z,97303.45
2023-04-07T00:13:57.247Z,97304.50
2023-04-07T00:16:25.363Z,97302.12
2023-04-07T00:18:53.314Z,97301.77
2023-04-07T00:21:21.232Z,97299.80
2023-04-07T00:23:49.182Z,97297.47
2023-04-07T00:26:17.122Z,97294.60
2023-04-07T00:28:45.272Z,97293.92
2023-04-07T00:31:13.395Z,97294.12
2023-04-07T00:33:41.528Z,97287.53
2023-04-07T00:36:09.792Z,97287.68
2023-04-07T00:38:37.832Z,97285.11
2023-04-07T00:41:06.268Z,97286.79
2023-04-07T00:43:34.435Z,97288.23
2023-04-07T00:46:03.173Z,97286.27
2023-04-07T00:48:31.390Z,97290.64
2023-04-07T00:50:59.459Z,97289.73
2023-04-07T00:53:27.459Z,97290.59
2023-04-07T00:55:55.614Z,97292.64
2023-04-07T00:58:23.730Z,97291.80
2023-04-07T01:01:11.110Z,97289.70
2023-04-07T01:03:52.691Z,97288.08
2023-04-07T01:06:26.107Z,97290.68
2023-04-07T01:09:01.142Z,97289.07
2023-04-07T01:11:41.263Z,97289.68
2023-04-07T01:14:12.714Z,97291.65
2023-04-07T01:16:50.024Z,97294.33
2023-04-07T01:19:43.424Z,97292.52
2023-04-07T01:22:18.031Z,97292.61
2023-04-07T01:25:10.895Z,97292.73
2023-04-07T01:28:10.693Z,97297.04
2023-04-07T01:30:41.752Z,97292.96
2023-04-07T01:33:11.788Z,97295.23
2023-04-07T01:35:41.568Z,97292.50
2023-04-07T01:38:12.037Z,97290.66
2023-04-07T01:40:41.430Z,97290.27
2023-04-07T01:43:10.449Z,97293.85
2023-04-07T01:45:39.801Z,97290.30
2023-04-07T01:48:08.648Z,97290.90
2023-04-07T01:50:38.947Z,97294.66
2023-04-07T01:53:08.171Z,97292.91
2023-04-07T01:55:36.146Z,97293.69
2023-04-07T01:58:09.886Z,97295.89
2023-04-07T02:00:41.936Z,97296.06
2023-04-07T02:03:21.256Z,97294.14
2023-04-07T02:05:54.851Z,97295.63
2023-04-07T02:08:28.824Z,97295.88
2023-04-07T02:10:59.875Z,97293.14
2023-04-07T02:13:30.097Z,97298.79
2023-04-07T02:15:59.484Z,97296.04
2023-04-07T02:18:28.878Z,97293.55
2023-04-07T02:20:58.238Z,97294.58
2023-04-07T02:23:26.276Z,97293.77
2023-04-07T02:25:58.052Z,97292.88
2023-04-07T02:28:26.144Z,97294.58
2023-04-07T02:30:54.078Z,97292.86
2023-04-07T02:33:22.004Z,97293.41
2023-04-07T02:35:50.008Z,97292.16
2023-04-07T02:38:17.912Z,97295.29
2023-04-07T02:40:45.962Z,97298.95
2023-04-07T02:43:14.423Z,97299.48
2023-04-07T02:45:42.342Z,97298.02
2023-04-07T02:48:10.631Z,97303.63
2023-04-07T02:50:38.985Z,97301.27
2023-04-07T02:53:07.213Z,97301.93
2023-04-07T02:55:35.396Z,97300.09
2023-04-07T02:58:03.391Z,97301.83
2023-04-07T03:00:37.138Z,97302.02
2023-04-07T03:03:10.072Z,97300.30
2023-04-07T03:05:39.840Z,97304.98
2023-04-07T03:08:08.362Z,97307.23
2023-04-07T03:10:36.492Z,97305.50
2023-04-07T03:13:04.981Z,97309.38
2023-04-07T03:15:34.022Z,97314.02
2023-04-07T03:18:02.033Z,97315.45
2023-04-07T03:20:30.731Z,97318.48
2023-04-07T03:23:01.896Z,97321.27
2023-04-07T03:25:30.218Z,97321.54
2023-04-07T03:27:59.060Z,97321.56
2023-04-07T03:30:27.925Z,97323.61
2023-04-07T03:32:56.381Z,97327.02
2023-04-07T03:35:25.425Z,97321.59
2023-04-07T03:37:53.331Z,97325.45
2023-04-07T03:40:21.994Z,97329.04
2023-04-07T03:42:50.074Z,97331.33
2023-04-07T03:45:18.419Z,97334.87
2023-04-07T03:47:49.416Z,97340.70
2023-04-07T03:50:17.767Z,97339.47
2023-04-07T03:52:54.464Z,97346.51
2023-04-07T03:55:26.097Z,97346.64
2023-04-07T03:57:57.751Z,97349.45
2023-04-07T04:00:27.425Z,97349.24
2023-04-07T04:03:08.469Z,97348.45
2023-04-07T04:05:38.409Z,97350.66
2023-04-07T04:08:07.362Z,97352.88
2023-04-07T04:10:35.832Z,97350.84
2023-04-07T04:13:06.772Z,97352.39
2023-04-07T04:15:35.370Z,97351.92
2023-04-07T04:18:03.446Z,97356.89
2023-04-07T04:20:32.356Z,97353.55
2023-04-07T04:23:01.402Z,97355.98
2023-04-07T04:25:29.560Z,97358.55
2023-04-07T04:27:58.351Z,97359.95
2023-04-07T04:30:27.745Z,97357.52
2023-04-07T04:32:58.645Z,97360.16
2023-04-07T04:35:33.824Z,97356.96
2023-04-07T04:38:22.163Z,97360.69
2023-04-07T04:40:59.977Z,97360.71
2023-04-07T04:43:31.017Z,97358.73
2023-04-07T04:45:59.933Z,97361.69
2023-04-07T04:48:29.404Z,97363.55
2023-04-07T04:50:57.465Z,97365.77
2023-04-07T04:53:25.685Z,97366.35
2023-04-07T04:55:57.422Z,97365.70
2023-04-07T04:58:35.465Z,97363.83
2023-04-07T05:01:03.589Z,97370.29
2023-04-07T05:03:40.452Z,97373.30
2023-04-07T05:06:14.710Z,97371.55
2023-04-07T05:08:43.689Z,97370.79
2023-04-07T05:11:12.447Z,97373.77
2023-04-07T05:13:41.063Z,97377.48
2023-04-07T05:16:10.318Z,97379.33
2023-04-07T05:18:38.914Z,97380.66
2023-04-07T05:21:07.566Z,97385.15
2023-04-07T05:23:36.917Z,97381.23
2023-04-07T05:26:06.355Z,97381.02
2023-04-07T05:28:34.619Z,97384.02
2023-04-07T05:31:07.526Z,97384.12
2023-04-07T05:33:36.238Z,97385.31
2023-04-07T05:36:05.100Z,97385.81
2023-04-07T05:38:33.767Z,97387.34
2023-04-07T05:41:07.557Z,97389.04
2023-04-07T05:43:36.401Z,97393.19
2023-04-07T05:46:04.851Z,97393.55
2023-04-07T05:48:33.360Z,97394.27
2023-04-07T05:51:01.628Z,97396.05
2023-04-07T05:53:29.842Z,97396.88
2023-04-07T05:55:58.152Z,97396.14
2023-04-07T05:58:39.020Z,97399.34
2023-04-07T06:01:07.694Z,97401.70
2023-04-07T06:03:36.072Z,97402.48
2023-04-07T06:06:22.486Z,97404.86
2023-04-07T06:08:51.466Z,97409.48
2023-04-07T06:11:19.598Z,97409.77
2023-04-07T06:13:48.064Z,97410.25
2023-04-07T06:16:17.448Z,97409.15
2023-04-07T06:18:47.365Z,97410.65
2023-04-07T06:21:16.028Z,97412.33
2023-04-07T06:23:44.050Z,97409.88
2023-04-07T06:26:12.880Z,97413.70
2023-04-07T06:28:41.488Z,97414.66
2023-04-07T06:31:10.565Z,97413.52
2023-04-07T06:33:39.256Z,97416.12
2023-04-07T06:36:08.533Z,97416.50
2023-04-07T06:38:37.370Z,97416.75
2023-04-07T06:41:05.496Z,97416.02
2023-04-07T06:43:34.023Z,97415.92
2023-04-07T06:46:05.559Z,97421.10
2023-04-07T06:48:34.194Z,97422.90
2023-04-07T06:51:05.810Z,97422.10
2023-04-07T06:53:35.496Z,97423.92
2023-04-07T06:56:12.350Z,97428.27
2023-04-07T06:58:45.579Z,97434.93
2023-04-07T07:01:13.972Z,97434.45
2023-04-07T07:03:42.864Z,97430.41
2023-04-07T07:06:11.176Z,97433.05
2023-04-07T07:08:41.212Z,97432.36
2023-04-07T07:11:09.255Z,97429.55
2023-04-07T07:13:37.704Z,97431.08
2023-04-07T07:16:06.382Z,97433.89
2023-04-07T07:18:37.449Z,97438.36
2023-04-07T07:21:07.097Z,97440.95
2023-04-07T07:23:35.543Z,97436.59
2023-04-07T07:26:04.673Z,97436.64
2023-04-07T07:28:32.785Z,97438.56
2023-04-07T07:31:01.129Z,97440.77
2023-04-07T07:33:29.701Z,97441.90
2023-04-07T07:36:00.462Z,97440.67
2023-04-07T07:38:29.302Z,97443.39
2023-04-07T07:40:59.493Z,97448.48
2023-04-07T07:43:27.766Z,97444.35
2023-04-07T07:45:57.067Z,97444.09
2023-04-07T07:48:25.372Z,97445.09
2023-04-07T07:50:57.128Z,97447.51
2023-04-07T07:53:25.481Z,97448.29
2023-04-07T07:55:53.454Z,97447.73
2023-04-07T07:58:22.221Z,97448.66
2023-04-07T08:00:50.509Z,97450.45
2023-04-07T08:03:20.130Z,97448.15
2023-04-07T08:05:49.731Z,97452.75
2023-04-07T08:08:18.109Z,97455.94
2023-04-07T08:10:47.153Z,97456.33
2023-04-07T08:13:16.196Z,97457.30
2023-04-07T08:15:45.522Z,97458.84
2023-04-07T08:18:17.188Z,97459.15
2023-04-07T08:20:45.460Z,97453.97
2023-04-07T08:23:13.959Z,97456.39
2023-04-07T08:25:43.092Z,97458.52
2023-04-07T08:28:11.253Z,97458.48
2023-04-07T08:30:41.294Z,97454.31
2023-04-07T08:33:10.085Z,97456.29
2023-04-07T08:35:42.201Z,97455.52
2023-04-07T08:38:10.842Z,97457.38
2023-04-07T08:40:39.660Z,97456.23
2023-04-07T08:43:10.399Z,97457.90
2023-04-07T08:45:42.122Z,97458.30
2023-04-07T08:48:34.365Z,97455.59
2023-04-07T08:51:06.698Z,97453.95
2023-04-07T08:53:43.607Z,97451.05
2023-04-07T08:56:13.213Z,97448.95
2023-04-07T08:58:45.506Z,97452.10
2023-04-07T09:01:16.243Z,97448.38
2023-04-07T09:03:47.203Z,97447.98
2023-04-07T09:06:16.264Z,97447.56
2023-04-07T09:08:44.294Z,97448.52
2023-04-07T09:11:15.046Z,97449.58
2023-04-07T09:13:43.185Z,97448.27
2023-04-07T09:16:14.116Z,97449.61
2023-04-07T09:18:43.392Z,97449.07
2023-04-07T09:21:12.625Z,97449.35
2023-04-07T09:23:43.095Z,97449.83
2023-04-07T09:26:25.996Z,97447.77
2023-04-07T09:29:00.085Z,97450.01
2023-04-07T09:31:55.497Z,97449.30
2023-04-07T09:34:34.570Z,97447.49
2023-04-07T09:37:03.879Z,97452.38
2023-04-07T09:39:50.791Z,97455.20
2023-04-07T09:42:20.675Z,97452.38
2023-04-07T09:44:49.052Z,97453.48
2023-04-07T09:47:18.434Z,97452.65
2023-04-07T09:49:56.418Z,97451.88
2023-04-07T09:52:55.905Z,97449.42
2023-04-07T09:55:31.990Z,97449.09
2023-04-07T09:58:01.906Z,97452.55
2023-04-07T10:00:30.127Z,97450.41
2023-04-07T10:02:59.027Z,97456.23
2023-04-07T10:05:28.046Z,97454.13
2023-04-07T10:07:56.642Z,97451.76
2023-04-07T10:10:26.725Z,97452.07
2023-04-07T10:12:57.222Z,97457.75
2023-04-07T10:15:26.870Z,97464.66
2023-04-07T10:17:57.332Z,97464.11
2023-04-07T10:20:26.317Z,97462.70
2023-04-07T10:22:56.989Z,97465.94
2023-04-07T10:25:26.930Z,97463.76
2023-04-07T10:28:00.724Z,97465.02
2023-04-07T10:30:31.723Z,97466.56
2023-04-07T10:33:01.523Z,97470.13
2023-04-07T10:36:06.303Z,97465.50
2023-04-07T10:38:35.036Z,97466.46
2023-04-07T10:41:37.044Z,97466.58
2023-04-07T10:44:08.982Z,97466.36
2023-04-07T10:46:47.318Z,97464.23
2023-04-07T10:49:19.354Z,97469.50
2023-04-07T10:52:13.426Z,97468.81
2023-04-07T10:54:42.971Z,97474.33
2023-04-07T10:57:16.810Z,97473.07
2023-04-07T11:00:16.899Z,97469.60
2023-04-07T11:02:45.752Z,97471.56
2023-04-07T11:05:22.834Z,97474.27
2023-04-07T11:07:55.450Z,97476.20
2023-04-07T11:10:23.647Z,97477.24
2023-04-07T11:13:03.492Z,97474.59
2023-04-07T11:15:38.631Z,97474.52
2023-04-07T11:18:23.369Z,97478.17
2023-04-07T11:20:54.979Z,97481.23
2023-04-07T11:23:25.305Z,97476.45
2023-04-07T11:26:03.172Z,97479.48
2023-04-07T11:28:32.439Z,97481.23
2023-04-07T11:31:00.841Z,97480.77
2023-04-07T11:33:31.854Z,97480.21
2023-04-07T11:36:04.525Z,97476.86
2023-04-07T11:38:38.055Z,97479.11
2023-04-07T11:41:14.788Z,97480.80
2023-04-07T11:43:45.105Z,97481.20
2023-04-07T11:46:17.371Z,97480.23
2023-04-07T11:48:50.445Z,97481.38
2023-04-07T11:51:24.384Z,97478.23
2023-04-07T11:53:57.055Z,97479.59
2023-04-07T11:56:26.001Z,97477.34
2023-04-07T11:58:58.410Z,97482.82
2023-04-07T12:01:41.561Z,97479.14
2023-04-07T12:04:14.354Z,97477.67
2023-04-07T12:06:42.964Z,97475.80
2023-04-07T12:09:38.315Z,97474.20
2023-04-07T12:12:10.897Z,97478.66
2023-04-07T12:14:39.225Z,97476.95
2023-04-07T12:17:09.604Z,97481.72
2023-04-07T12:19:41.854Z,97479.89
2023-04-07T12:22:10.247Z,97484.42
2023-04-07T12:24:47.668Z,97480.41
2023-04-07T12:27:16.387Z,97481.92
2023-04-07T12:29:44.729Z,97481.33
2023-04-07T12:32:13.377Z,97481.25
2023-04-07T12:34:43.011Z,97484.05
2023-04-07T12:37:12.073Z,97483.02
2023-04-07T12:39:42.681Z,97485.73
2023-04-07T12:42:12.083Z,97482.59
2023-04-07T12:44:44.898Z,97485.95
2023-04-07T12:47:13.024Z,97485.72
2023-04-07T12:49:42.084Z,97489.36
2023-04-07T12:52:22.755Z,97487.64
2023-04-07T12:54:52.341Z,97491.78
2023-04-07T12:57:24.015Z,97491.72
2023-04-07T12:59:53.641Z,97493.47
2023-04-07T13:02:22.572Z,97489.95
2023-04-07T13:04:52.374Z,97490.42
2023-04-07T13:07:22.132Z,97491.64
2023-04-07T13:09:50.634Z,97493.84
2023-04-07T13:12:19.322Z,97494.88
2023-04-07T13:14:59.196Z,97494.57
2023-04-07T13:17:29.202Z,97496.27
2023-04-07T13:19:57.979Z,97499.77
2023-04-07T13:22:26.389Z,97503.72
2023-04-07T13:24:58.091Z,97508.23
2023-04-07T13:27:27.843Z,97507.55
2023-04-07T13:29:56.685Z,97503.36
2023-04-07T13:32:25.095Z,97508.66
2023-04-07T13:34:54.096Z,97508.96
2023-04-07T13:37:23.978Z,97505.96
2023-04-07T13:39:55.893Z,97508.23
2023-04-07T13:42:24.407Z,97510.21
2023-04-07T13:44:55.388Z,97510.59
2023-04-07T13:47:26.942Z,97511.43
2023-04-07T13:49:57.401Z,97512.90
2023-04-07T13:52:25.442Z,97513.06
2023-04-07T13:54:53.826Z,97520.55
2023-04-07T13:57:23.265Z,97521.18
2023-04-07T13:59:54.085Z,97520.08
2023-04-07T14:02:24.533Z,97521.19
2023-04-07T14:04:53.487Z,97528.14
2023-04-07T14:07:23.200Z,97528.89
2023-04-07T14:09:56.773Z,97529.96
2023-04-07T14:12:25.278Z,97529.04
2023-04-07T14:14:55.098Z,97526.05
2023-04-07T14:17:26.528Z,97530.01
2023-04-07T14:19:54.699Z,97536.33
2023-04-07T14:22:23.249Z,97535.83
2023-04-07T14:24:51.598Z,97540.77
2023-04-07T14:27:22.357Z,97538.52
2023-04-07T14:29:51.482Z,97541.92
2023-04-07T14:32:20.188Z,97542.43
2023-04-07T14:34:49.718Z,97539.58
2023-04-07T14:37:18.899Z,97543.09
2023-04-07T14:40:01.482Z,97539.62
2023-04-07T14:42:33.619Z,97540.47
2023-04-07T14:45:02.311Z,97547.58
2023-04-07T14:47:31.229Z,97546.68
2023-04-07T14:50:00.352Z,97548.99
2023-04-07T14:52:28.887Z,97548.38
2023-04-07T14:55:00.264Z,97554.16
2023-04-07T14:57:28.954Z,97560.07
2023-04-07T14:59:59.552Z,97559.34
2023-04-07T15:02:29.580Z,97561.86
2023-04-07T15:04:58.911Z,97562.91
2023-04-07T15:07:27.846Z,97566.52
2023-04-07T15:09:57.460Z,97571.82
2023-04-07T15:12:28.223Z,97569.66
2023-04-07T15:14:58.977Z,97570.16
2023-04-07T15:17:40.188Z,97573.03
2023-04-07T15:20:13.493Z,97571.28
2023-04-07T15:22:43.123Z,97574.55
2023-04-07T15:25:11.796Z,97575.13
2023-04-07T15:27:40.936Z,97577.85
2023-04-07T15:30:09.843Z,97579.89
2023-04-07T15:32:38.815Z,97579.58
2023-04-07T15:35:07.898Z,97582.59
2023-04-07T15:37:36.615Z,97582.48
2023-04-07T15:40:05.836Z,97582.23
2023-04-07T15:42:41.965Z,97580.81
2023-04-07T15:45:15.348Z,97588.67
2023-04-07T15:47:44.681Z,97589.05
2023-04-07T15:50:12.709Z,97592.96
2023-04-07T15:52:41.200Z,97592.46
2023-04-07T15:55:09.964Z,97594.50
2023-04-07T15:57:39.159Z,97599.11
2023-04-07T16:00:09.189Z,97600.29
2023-04-07T16:02:41.402Z,97602.10
2023-04-07T16:05:10.008Z,97601.35
2023-04-07T16:07:38.400Z,97602.39
2023-04-07T16:10:08.631Z,97606.94
2023-04-07T16:12:38.052Z,97608.54
2023-04-07T16:15:08.109Z,97611.23
2023-04-07T16:17:36.910Z,97608.51
2023-04-07T16:20:15.145Z,97609.86
2023-04-07T16:22:48.520Z,97610.66
2023-04-07T16:25:18.043Z,97616.56
2023-04-07T16:27:47.284Z,97622.24
2023-04-07T16:30:15.859Z,97618.75
2023-04-07T16:32:47.288Z,97625.44
2023-04-07T16:35:16.600Z,97626.86
2023-04-07T16:38:05.304Z,97626.05
2023-04-07T16:40:33.901Z,97634.35
2023-04-07T16:43:02.123Z,97637.15
2023-04-07T16:45:30.999Z,97639.91
2023-04-07T16:47:59.906Z,97639.55
2023-04-07T16:50:29.403Z,97638.29
2023-04-07T16:52:57.814Z,97642.49
2023-04-07T16:55:27.520Z,97647.14
2023-04-07T16:57:56.348Z,97645.53
2023-04-07T17:00:24.420Z,97650.20
2023-04-07T17:02:52.707Z,97654.30
2023-04-07T17:05:21.219Z,97657.98
2023-04-07T17:07:50.438Z,97658.34
2023-04-07T17:10:18.616Z,97659.91
2023-04-07T17:12:52.335Z,97662.23
2023-04-07T17:15:21.276Z,97667.23
2023-04-07T17:17:50.245Z,97670.44
2023-04-07T17:20:18.669Z,97669.92
2023-04-07T17:22:49.185Z,97673.47
2023-04-07T17:25:19.025Z,97678.14
2023-04-07T17:27:48.399Z,97680.11
2023-04-07T17:30:18.336Z,97683.68
2023-04-07T17:32:48.422Z,97688.33
2023-04-07T17:35:17.322Z,97687.44
2023-04-07T17:37:46.156Z,97693.56
2023-04-07T17:40:14.486Z,97696.41
2023-04-07T17:42:43.041Z,97694.98
2023-04-07T17:45:12.005Z,97701.05
2023-04-07T17:47:41.105Z,97703.39
2023-04-07T17:50:10.757Z,97707.31
2023-04-07T17:52:38.873Z,97710.61
2023-04-07T17:55:08.352Z,97716.17
2023-04-07T17:57:36.624Z,97721.94
2023-04-07T18:00:09.999Z,97727.89
2023-04-07T18:02:42.457Z,97727.59
2023-04-07T18:05:11.261Z,97730.73
2023-04-07T18:07:39.758Z,97733.70
2023-04-07T18:10:10.408Z,97733.27
2023-04-07T18:12:39.211Z,97736.87
2023-04-07T18:15:09.948Z,97736.95
2023-04-07T18:17:39.178Z,97738.77
2023-04-07T18:20:08.631Z,97740.48
2023-04-07T18:22:37.314Z,97738.80
2023-04-07T18:25:07.029Z,97746.63
2023-04-07T18:27:35.292Z,97750.33
2023-04-07T18:30:07.266Z,97758.23
2023-04-07T18:32:36.063Z,97761.77
2023-04-07T18:35:08.117Z,97758.70
2023-04-07T18:37:37.743Z,97763.59
2023-04-07T18:40:06.901Z,97764.02
2023-04-07T18:42:35.135Z,97766.52
2023-04-07T18:45:03.790Z,97765.48
2023-04-07T18:47:32.529Z,97766.30
2023-04-07T18:50:04.641Z,97773.86
2023-04-07T18:52:35.726Z,97771.56
2023-04-07T18:55:04.814Z,97774.52
2023-04-07T18:57:33.027Z,97776.75
2023-04-07T19:00:10.430Z,97778.33
2023-04-07T19:02:44.527Z,97780.46
2023-04-07T19:05:13.039Z,97778.24
2023-04-07T19:07:41.334Z,97779.86
2023-04-07T19:10:09.654Z,97778.32
2023-04-07T19:12:37.914Z,97778.84
2023-04-07T19:15:06.791Z,97780.48
2023-04-07T19:17:35.247Z,97778.16
2023-04-07T19:20:04.035Z,97777.06
2023-04-07T19:22:32.280Z,97774.30
2023-04-07T19:25:00.593Z,97774.78
2023-04-07T19:27:31.873Z,97778.79
2023-04-07T19:30:00.378Z,97780.70
2023-04-07T19:32:28.709Z,97779.89
2023-04-07T19:34:57.191Z,97777.17
2023-04-07T19:37:25.363Z,97780.48
2023-04-07T19:40:02.347Z,97778.44
2023-04-07T19:42:32.593Z,97780.45
2023-04-07T19:45:02.331Z,97779.83
2023-04-07T19:47:30.657Z,97785.14
2023-04-07T19:49:59.395Z,97783.60
2023-04-07T19:52:30.874Z,97787.17
2023-04-07T19:55:01.297Z,97791.88
2023-04-07T19:57:31.251Z,97790.20
2023-04-07T19:59:59.432Z,97790.73
2023-04-07T20:02:28.507Z,97786.64
2023-04-07T20:04:57.868Z,97787.91
2023-04-07T20:07:27.825Z,97789.69
2023-04-07T20:09:57.438Z,97789.52
2023-04-07T20:12:25.814Z,97790.95
2023-04-07T20:14:55.543Z,97792.19
2023-04-07T20:17:23.660Z,97795.02
2023-04-07T20:19:54.654Z,97795.38
2023-04-07T20:22:23.124Z,97795.40
2023-04-07T20:24:51.329Z,97791.97
2023-04-07T20:27:19.904Z,97794.95
2023-04-07T20:29:48.057Z,97794.05
2023-04-07T20:32:16.593Z,97793.46
2023-04-07T20:34:46.997Z,97798.38
2023-04-07T20:37:15.118Z,97794.45
2023-04-07T20:39:44.730Z,97792.39
2023-04-07T20:42:13.139Z,97794.42
2023-04-07T20:44:43.553Z,97800.71
2023-04-07T20:47:15.324Z,97798.58
2023-04-07T20:49:44.013Z,97804.77
2023-04-07T20:52:12.562Z,97801.13
2023-04-07T20:54:47.750Z,97802.90
2023-04-07T20:57:16.291Z,97804.69
2023-04-07T20:59:44.665Z,97808.90
2023-04-07T21:02:16.684Z,97808.05
2023-04-07T21:04:45.148Z,97809.37
2023-04-07T21:07:13.261Z,97810.23
2023-04-07T21:09:41.567Z,97813.46
2023-04-07T21:12:10.552Z,97817.70
2023-04-07T21:14:38.516Z,97815.35
2023-04-07T21:17:07.161Z,97816.45
2023-04-07T21:19:35.711Z,97815.61
2023-04-07T21:22:04.838Z,97813.41
2023-04-07T21:24:33.098Z,97812.27
2023-04-07T21:27:01.264Z,97817.31
2023-04-07T21:29:31.954Z,97818.34
2023-04-07T21:32:00.251Z,97818.20
2023-04-07T21:34:28.305Z,97817.27
2023-04-07T21:36:56.453Z,97816.64
2023-04-07T21:39:24.789Z,97819.58
2023-04-07T21:41:52.920Z,97821.79
2023-04-07T21:44:21.572Z,97821.33
2023-04-07T21:46:49.923Z,97824.34
2023-04-07T21:49:22.039Z,97821.71
2023-04-07T21:51:52.794Z,97820.42
2023-04-07T21:54:20.944Z,97822.79
2023-04-07T21:56:49.406Z,97825.27
2023-04-07T21:59:17.784Z,97827.00
2023-04-07T22:01:47.138Z,97824.46
2023-04-07T22:04:16.154Z,97827.70
2023-04-07T22:06:44.253Z,97828.46
2023-04-07T22:09:12.451Z,97828.70
2023-04-07T22:11:41.674Z,97830.40
2023-04-07T22:14:09.907Z,97831.59
2023-04-07T22:16:38.283Z,97833.18
2023-04-07T22:19:06.406Z,97833.41
2023-04-07T22:21:34.545Z,97829.36
2023-04-07T22:24:02.808Z,97832.06
2023-04-07T22:26:32.031Z,97832.47
2023-04-07T22:29:03.076Z,97831.16
2023-04-07T22:31:31.544Z,97826.83
2023-04-07T22:34:00.638Z,97831.89
2023-04-07T22:36:30.015Z,97832.55
2023-04-07T22:38:58.063Z,97833.20
2023-04-07T22:41:27.069Z,97834.02
2023-04-07T22:43:55.908Z,97830.20
2023-04-07T22:46:24.032Z,97829.77
2023-04-07T22:48:52.444Z,97829.34
2023-04-07T22:51:20.811Z,97829.46
2023-04-07T22:53:48.874Z,97829.98
2023-04-07T22:56:17.100Z,97831.08
2023-04-07T22:58:45.491Z,97824.77
2023-04-07T23:01:14.261Z,97828.31
2023-04-07T23:03:42.743Z,97827.21
2023-04-07T23:06:11.237Z,97823.82
2023-04-07T23:08:39.462Z,97823.84
2023-04-07T23:11:11.113Z,97825.15
2023-04-07T23:13:40.058Z,97823.08
2023-04-07T23:16:15.782Z,97825.45
2023-04-07T23:18:44.299Z,97821.91
2023-04-07T23:21:13.786Z,97821.02
2023-04-07T23:23:42.501Z,97820.67
2023-04-07T23:26:10.838Z,97821.05
2023-04-07T23:28:38.965Z,97822.55
2023-04-07T23:31:07.285Z,97823.05
2023-04-07T23:33:35.502Z,97823.30
2023-04-07T23:36:04.046Z,97821.61
2023-04-07T23:38:32.624Z,97822.04
2023-04-07T23:41:00.874Z,97823.27
2023-04-07T23:43:29.874Z,97819.27
2023-04-07T23:45:58.008Z,97823.88
2023-04-07T23:48:26.638Z,97822.63
2023-04-07T23:50:54.876Z,97822.30
2023-04-07T23:53:25.142Z,97822.11
2023-04-07T23:55:53.759Z,97826.35
2023-04-07T23:58:21.877Z,97826.14
